NCAR-RAP Real-Time Weather Data

Output produced by METARs form (17 September 2019  17:24 UTC)
found at http://weather.rap.ucar.edu/surface/
 
KINL 171655Z AUTO 17014G27KT 130V200 10SM CLR 24/17 A2990 RMK AO2 PK WND 15027/1608 SLP122 T02390167
KINL 171555Z AUTO 17007G19KT 120V210 10SM FEW110 24/19 A2991 RMK AO2 SLP125 T02440189
KINL 171523Z AUTO 18007KT 150V220 6SM HZ SCT010 BKN090 23/20 A2992 RMK AO2 T02330200
KINL 171455Z AUTO 5SM HZ OVC008 23/20 A2992 RMK AO2 CIG 008V012 SLP127 T02280200 58001
KINL 171355Z AUTO VRB05KT 4SM BR OVC008 22/20 A2992 RMK AO2 SLP128 T02170200
KINL 171255Z AUTO 15006KT 3SM BR OVC008 20/19 A2992 RMK AO2 CIG 006V011 SLP130 T02000189
KINL 171245Z AUTO 15005KT 3SM BR BKN008 20/18 A2992 RMK AO2 CIG 007V013 T02000183
KINL 171224Z AUTO 15005KT 3SM BR BKN010 20/19 A2992 RMK AO2 CIG 008V013 T02000189
KINL 171217Z AUTO 15005KT 2 1/2SM BR SCT010 20/18 A2992 RMK AO2 T02000183
KINL 171202Z AUTO 15005KT 1 3/4SM BR FEW010 19/18 A2992 RMK AO2 T01940183
KINL 171155Z AUTO 14004KT 2SM BR FEW010 19/18 A2992 RMK AO2 SLP128 T01940183 10206 20189 53007
KINL 171055Z AUTO 15003KT 5SM BR CLR 19/18 A2990 RMK AO2 SLP120 T01940183
KINL 170955Z AUTO 15004KT 7SM CLR 19/18 A2990 RMK AO2 SLP121 T01890178
KINL 170855Z AUTO VRB03KT 8SM CLR 19/18 A2990 RMK AO2 SLP120 T01940178 51003
KINL 170755Z AUTO VRB05KT 10SM CLR 20/18 A2989 RMK AO2 SLP118 T02000178
KINL 170655Z AUTO VRB04KT 10SM CLR 21/18 A2990 RMK AO2 SLP120 T02060178
KINL 170555Z AUTO VRB05KT 10SM CLR 21/17 A2989 RMK AO2 SLP117 T02060172 10250 20206 402890117 51003
KINL 170455Z AUTO 16005KT 10SM CLR 21/17 A2989 RMK AO2 SLP117 T02060167
KINL 170355Z AUTO 16004KT 10SM CLR 22/17 A2989 RMK AO2 SLP117 T02170172
KINL 170255Z AUTO 15005KT 10SM CLR 22/17 A2988 RMK AO2 SLP116 T02220167 53007
KINL 170055Z AUTO 16004KT 10SM CLR 23/16 A2986 RMK AO2 SLP112 T02330161
KINL 162355Z AUTO VRB04KT 10SM CLR 25/16 A2986 RMK AO2 SLP111 T02500161 10289 20250 56003
KINL 162255Z AUTO 17006KT 10SM CLR 28/17 A2986 RMK AO2 SLP110 T02780167
KINL 162155Z AUTO 16009G16KT 130V190 10SM CLR 28/16 A2986 RMK AO2 SLP110 T02830161
KINL 162055Z AUTO VRB05KT 10SM CLR 28/16 A2987 RMK AO2 SLP113 T02830161 56017